Time;durP1;ratioP1;P1;durP2;ratioP2;P2;SDS_P1;SDS_P2;PMS_P1;PMS_P2;Temp;Humidity;BMP_temperature;BMP_pressure;BME280_temperature;BME280_humidity;BME280_pressure;Samples;Min_cycle;Max_cycle;Signal;HPM_P1;HPM_P2
2022/05/25 00:02:24;;;;;;;4.47;2.15;;;;;;;;;;4974111;28;20027;-76
2022/05/25 00:04:51;;;;;;;4.75;2.10;;;;;;;;;;4973418;28;20500;-76
2022/05/25 00:07:17;;;;;;;4.10;1.92;;;;;;;;;;4956611;28;20114;-76
2022/05/25 00:09:43;;;;;;;3.83;1.73;;;;;;;;;;4973771;28;20109;-76
2022/05/25 00:12:13;;;;;;;3.28;1.40;;;;;;;;;;4966444;28;20034;-76
2022/05/25 00:14:39;;;;;;;4.30;1.50;;;;;;;;;;4973571;28;20050;-76
2022/05/25 00:17:05;;;;;;;4.57;2.00;;;;;;;;;;4961994;28;20026;-76
2022/05/25 00:22:16;;;;;;;3.95;1.77;;;;;;;;;;4971956;28;20049;-77
2022/05/25 00:24:42;;;;;;;3.97;1.98;;;;;;;;;;4973737;28;20093;-76
2022/05/25 00:27:08;;;;;;;4.20;1.60;;;;;;;;;;4971920;28;20541;-76
2022/05/25 00:29:36;;;;;;;4.05;1.75;;;;;;;;;;4973509;28;20058;-76
2022/05/25 00:32:02;;;;;;;3.92;1.55;;;;;;;;;;4973175;28;20056;-76
2022/05/25 00:34:28;;;;;;;4.93;1.83;;;;;;;;;;4972527;28;20500;-77
2022/05/25 00:36:54;;;;;;;5.18;1.50;;;;;;;;;;4968810;28;20035;-76
2022/05/25 00:39:23;;;;;;;3.78;1.67;;;;;;;;;;4973003;28;20023;-76
2022/05/25 00:41:50;;;;;;;3.90;1.55;;;;;;;;;;4973419;28;20105;-76
2022/05/25 00:44:17;;;;;;;3.35;1.80;;;;;;;;;;4973120;28;20111;-78
2022/05/25 00:46:43;;;;;;;3.50;1.67;;;;;;;;;;4969916;28;20034;-76
2022/05/25 00:49:12;;;;;;;4.05;1.60;;;;;;;;;;4973255;28;20046;-75
2022/05/25 00:51:40;;;;;;;3.80;1.85;;;;;;;;;;4973351;28;20434;-76
2022/05/25 00:54:09;;;;;;;3.33;1.27;;;;;;;;;;4971989;28;20426;-76
2022/05/25 00:56:35;;;;;;;3.10;1.48;;;;;;;;;;4959852;28;20053;-75
2022/05/25 00:59:08;;;;;;;3.92;1.92;;;;;;;;;;4954576;28;20027;-76
2022/05/25 01:01:34;;;;;;;4.03;2.00;;;;;;;;;;4953716;28;20474;-76
2022/05/25 01:04:00;;;;;;;3.85;1.80;;;;;;;;;;4960312;28;20489;-76
2022/05/25 01:06:44;;;;;;;4.03;1.75;;;;;;;;;;4964323;28;20497;-76
2022/05/25 01:09:19;;;;;;;4.80;1.60;;;;;;;;;;4961381;28;20058;-76
2022/05/25 01:12:04;;;;;;;4.80;1.85;;;;;;;;;;4969654;28;20030;-76
2022/05/25 01:14:39;;;;;;;4.53;1.67;;;;;;;;;;4970756;28;20089;-79
2022/05/25 01:17:20;;;;;;;4.07;1.60;;;;;;;;;;4972842;28;20374;-77
2022/05/25 01:20:08;;;;;;;3.72;1.90;;;;;;;;;;4972599;28;20114;-76
2022/05/25 01:22:40;;;;;;;3.90;1.60;;;;;;;;;;4964374;28;20038;-75
2022/05/25 01:25:22;;;;;;;3.77;1.87;;;;;;;;;;4971423;28;20038;-76
2022/05/25 01:27:49;;;;;;;3.28;1.50;;;;;;;;;;4972316;28;20052;-76
2022/05/25 01:30:18;;;;;;;3.95;1.70;;;;;;;;;;4972324;28;20409;-75
2022/05/25 01:33:03;;;;;;;4.85;1.67;;;;;;;;;;4963196;28;20481;-76
2022/05/25 01:35:29;;;;;;;3.80;1.70;;;;;;;;;;4963313;28;20024;-76
2022/05/25 01:38:00;;;;;;;3.58;1.67;;;;;;;;;;4955168;28;20026;-76
2022/05/25 01:40:43;;;;;;;3.63;1.40;;;;;;;;;;4972521;28;20019;-76
2022/05/25 01:43:09;;;;;;;;;;;;;;;;;;4971430;28;20030;-76
2022/05/25 01:45:38;;;;;;;3.80;1.80;;;;;;;;;;4962139;28;19921;-76
2022/05/25 01:48:06;;;;;;;4.03;1.60;;;;;;;;;;4954311;28;20034;-76
2022/05/25 01:50:40;;;;;;;3.92;1.60;;;;;;;;;;4952980;28;20027;-77
2022/05/25 01:53:07;;;;;;;3.72;1.40;;;;;;;;;;4958183;28;20509;-76
2022/05/25 01:55:37;;;;;;;3.15;1.40;;;;;;;;;;4965156;28;20026;-76
2022/05/25 01:58:07;;;;;;;3.97;1.50;;;;;;;;;;4952936;28;20044;-76
2022/05/25 02:00:36;;;;;;;3.33;1.40;;;;;;;;;;4953827;28;20082;-76
2022/05/25 02:05:58;;;;;;;3.58;1.58;;;;;;;;;;4972039;28;20090;-76
2022/05/25 02:08:39;;;;;;;4.75;1.80;;;;;;;;;;4965306;28;20130;-76
2022/05/25 02:11:14;;;;;;;3.28;1.60;;;;;;;;;;4970790;28;20030;-76
2022/05/25 02:13:56;;;;;;;4.03;1.80;;;;;;;;;;4969670;28;20114;-75
2022/05/25 02:16:51;;;;;;;3.40;1.40;;;;;;;;;;4952718;28;20091;-76
2022/05/25 02:19:23;;;;;;;3.72;1.55;;;;;;;;;;4953018;28;20047;-76
2022/05/25 02:21:57;;;;;;;3.55;1.75;;;;;;;;;;4971001;28;20114;-76
2022/05/25 02:24:32;;;;;;;3.47;1.50;;;;;;;;;;4963964;28;20478;-76
2022/05/25 02:27:14;;;;;;;3.55;1.75;;;;;;;;;;4952657;28;20039;-76
2022/05/25 02:29:46;;;;;;;4.45;1.58;;;;;;;;;;4969859;28;20022;-76
2022/05/25 02:32:20;;;;;;;3.50;1.80;;;;;;;;;;4971993;28;20117;-76
2022/05/25 02:34:49;;;;;;;3.90;1.70;;;;;;;;;;4965380;28;20455;-76
2022/05/25 02:37:16;;;;;;;3.97;1.60;;;;;;;;;;4971029;28;20110;-76
2022/05/25 02:39:43;;;;;;;3.97;2.05;;;;;;;;;;4971122;28;20030;-76
2022/05/25 02:42:13;;;;;;;3.78;2.10;;;;;;;;;;4970046;28;20032;-75
2022/05/25 02:44:40;;;;;;;3.50;1.65;;;;;;;;;;4970848;28;20054;-76
2022/05/25 02:47:06;;;;;;;3.67;1.73;;;;;;;;;;4964280;28;20023;-76
2022/05/25 02:49:32;;;;;;;4.20;1.83;;;;;;;;;;4952400;28;20046;-76
2022/05/25 02:51:58;;;;;;;2.72;1.42;;;;;;;;;;4957702;28;20034;-76
2022/05/25 02:54:24;;;;;;;3.33;1.45;;;;;;;;;;4974440;28;20098;-76
2022/05/25 02:56:50;;;;;;;3.13;1.30;;;;;;;;;;4973833;28;20445;-76
2022/05/25 02:59:16;;;;;;;3.20;1.48;;;;;;;;;;4975082;28;20027;-76
2022/05/25 03:01:42;;;;;;;3.90;1.58;;;;;;;;;;4975002;28;20026;-77
2022/05/25 03:04:08;;;;;;;2.78;1.33;;;;;;;;;;4973052;28;20046;-77
2022/05/25 03:06:35;;;;;;;3.22;1.33;;;;;;;;;;4974609;28;20034;-76
2022/05/25 03:09:01;;;;;;;3.40;1.40;;;;;;;;;;4974182;28;20052;-76
2022/05/25 03:11:27;;;;;;;4.95;1.58;;;;;;;;;;4966298;28;20038;-76
2022/05/25 03:13:53;;;;;;;3.13;1.23;;;;;;;;;;4963569;28;20027;-76
2022/05/25 03:16:20;;;;;;;3.70;1.52;;;;;;;;;;4983173;28;20077;-76
2022/05/25 03:18:47;;;;;;;5.45;1.50;;;;;;;;;;4984996;28;20520;-76
2022/05/25 03:21:13;;;;;;;2.83;1.20;;;;;;;;;;4976386;28;20054;-76
2022/05/25 03:23:39;;;;;;;4.68;1.50;;;;;;;;;;4974632;28;20022;-76
2022/05/25 03:26:06;;;;;;;4.40;1.35;;;;;;;;;;4974627;28;20489;-77
2022/05/25 03:28:32;;;;;;;3.05;1.27;;;;;;;;;;4973464;28;20053;-76
2022/05/25 03:30:58;;;;;;;3.42;1.58;;;;;;;;;;4974677;28;20037;-76
2022/05/25 03:33:24;;;;;;;2.55;1.10;;;;;;;;;;4972513;28;20027;-76
2022/05/25 03:35:50;;;;;;;3.10;1.38;;;;;;;;;;4972552;28;20034;-75
2022/05/25 03:38:16;;;;;;;3.05;1.30;;;;;;;;;;4973786;28;20395;-76
2022/05/25 03:40:42;;;;;;;3.25;1.30;;;;;;;;;;4974375;28;20450;-76
2022/05/25 03:43:10;;;;;;;3.20;1.35;;;;;;;;;;4974162;28;20058;-76
2022/05/25 03:45:37;;;;;;;2.35;1.20;;;;;;;;;;4974031;28;20476;-76
2022/05/25 03:48:07;;;;;;;2.58;1.00;;;;;;;;;;4973729;28;20477;-75
2022/05/25 03:50:34;;;;;;;3.92;1.40;;;;;;;;;;4973715;28;20023;-76
2022/05/25 03:53:00;;;;;;;3.75;1.70;;;;;;;;;;4971231;28;20544;-76
2022/05/25 03:55:26;;;;;;;5.00;1.20;;;;;;;;;;4972667;28;20078;-75
2022/05/25 03:57:52;;;;;;;3.45;1.02;;;;;;;;;;4971688;28;20066;-76
2022/05/25 04:00:18;;;;;;;3.63;1.20;;;;;;;;;;4970630;28;20023;-76
2022/05/25 04:02:46;;;;;;;3.45;1.70;;;;;;;;;;4969249;28;20510;-76
2022/05/25 04:05:12;;;;;;;3.47;1.27;;;;;;;;;;4984162;28;20042;-76
2022/05/25 04:07:42;;;;;;;2.80;1.20;;;;;;;;;;4973689;28;20061;-76
2022/05/25 04:10:12;;;;;;;4.10;1.30;;;;;;;;;;4973667;28;20027;-76
2022/05/25 04:12:39;;;;;;;2.97;1.35;;;;;;;;;;4973589;28;20392;-76
2022/05/25 04:15:05;;;;;;;2.80;1.30;;;;;;;;;;4972353;28;20037;-75
2022/05/25 04:17:35;;;;;;;3.00;1.30;;;;;;;;;;4970167;28;20451;-76
2022/05/25 04:20:01;;;;;;;3.13;1.48;;;;;;;;;;4970947;28;20022;-76
2022/05/25 04:22:29;;;;;;;3.35;1.30;;;;;;;;;;4971043;28;20085;-77
2022/05/25 04:24:55;;;;;;;2.83;1.13;;;;;;;;;;4970715;28;20438;-76
2022/05/25 04:27:21;;;;;;;2.83;1.10;;;;;;;;;;4971751;28;20117;-76
2022/05/25 04:29:47;;;;;;;3.55;1.10;;;;;;;;;;4972517;28;20110;-75
2022/05/25 04:32:13;;;;;;;2.70;1.10;;;;;;;;;;4973143;28;20027;-75
2022/05/25 04:34:39;;;;;;;2.83;1.17;;;;;;;;;;4973127;28;20572;-76
2022/05/25 04:39:50;;;;;;;2.38;1.10;;;;;;;;;;4972860;28;20057;-76
2022/05/25 04:42:17;;;;;;;2.70;1.20;;;;;;;;;;4972739;28;20433;-77
2022/05/25 04:44:43;;;;;;;2.97;1.30;;;;;;;;;;4973199;28;20054;-77
2022/05/25 04:47:09;;;;;;;3.65;1.30;;;;;;;;;;4972255;28;20097;-77
2022/05/25 04:49:36;;;;;;;2.47;1.10;;;;;;;;;;4972917;28;20130;-77
2022/05/25 04:52:03;;;;;;;2.60;1.13;;;;;;;;;;4971189;28;20023;-77
2022/05/25 04:54:29;;;;;;;3.05;1.10;;;;;;;;;;4970315;28;20041;-76
2022/05/25 04:57:28;;;;;;;4.30;1.58;;;;;;;;;;4974125;28;20564;-76
2022/05/25 04:59:48;;;;;;;2.97;1.47;;;;;;;;;;4972308;28;20397;-77
2022/05/25 05:02:14;;;;;;;3.55;1.27;;;;;;;;;;4971545;28;20274;-77
2022/05/25 05:04:40;;;;;;;2.88;1.10;;;;;;;;;;4972106;28;20034;-76
2022/05/25 05:07:06;;;;;;;2.92;1.10;;;;;;;;;;4972730;28;20026;-77
2022/05/25 05:09:33;;;;;;;3.08;1.20;;;;;;;;;;4970524;28;20019;-76
2022/05/25 05:11:59;;;;;;;3.58;1.10;;;;;;;;;;4970693;28;20089;-77
2022/05/25 05:14:25;;;;;;;2.88;1.30;;;;;;;;;;4971107;28;20026;-77
2022/05/25 05:16:58;;;;;;;2.80;1.10;;;;;;;;;;4972249;28;20081;-76
2022/05/25 05:19:25;;;;;;;2.42;1.10;;;;;;;;;;4970180;28;20022;-77
2022/05/25 05:21:51;;;;;;;3.03;1.33;;;;;;;;;;4971945;28;20500;-77
2022/05/25 05:24:17;;;;;;;2.75;1.20;;;;;;;;;;4972272;28;20025;-77
2022/05/25 05:26:43;;;;;;;3.95;1.50;;;;;;;;;;4971560;28;20023;-76
2022/05/25 05:29:09;;;;;;;3.40;1.30;;;;;;;;;;4972213;28;20373;-77
2022/05/25 05:31:35;;;;;;;4.00;1.63;;;;;;;;;;4972250;28;20034;-77
2022/05/25 05:34:04;;;;;;;3.60;1.70;;;;;;;;;;4971068;28;20543;-77
2022/05/25 05:36:33;;;;;;;4.18;1.90;;;;;;;;;;4972011;28;20023;-77
2022/05/25 05:39:07;;;;;;;5.13;2.17;;;;;;;;;;4972100;28;20090;-77
2022/05/25 05:41:48;;;;;;;4.50;2.20;;;;;;;;;;4971873;28;20027;-77
2022/05/25 05:44:17;;;;;;;4.47;2.20;;;;;;;;;;4972922;28;20023;-77
2022/05/25 05:46:44;;;;;;;7.80;3.50;;;;;;;;;;4972774;28;20041;-77
2022/05/25 05:49:10;;;;;;;5.47;2.80;;;;;;;;;;4971005;28;20105;-77
2022/05/25 05:51:36;;;;;;;10.25;3.95;;;;;;;;;;4969812;28;20073;-77
2022/05/25 05:54:03;;;;;;;4.50;2.83;;;;;;;;;;4970755;28;20110;-77
2022/05/25 05:56:29;;;;;;;4.30;2.45;;;;;;;;;;4971274;28;20053;-77
2022/05/25 05:58:55;;;;;;;6.47;3.03;;;;;;;;;;4970826;28;20433;-78
2022/05/25 06:01:21;;;;;;;4.00;2.20;;;;;;;;;;4971692;28;20114;-77
2022/05/25 06:03:47;;;;;;;5.25;2.35;;;;;;;;;;4971751;28;20031;-76
2022/05/25 06:06:13;;;;;;;4.75;2.33;;;;;;;;;;4972299;28;20077;-77
2022/05/25 06:08:39;;;;;;;4.22;2.28;;;;;;;;;;4972314;28;20027;-77
2022/05/25 06:11:05;;;;;;;3.90;2.08;;;;;;;;;;4968800;28;20541;-77
2022/05/25 06:13:31;;;;;;;4.13;1.98;;;;;;;;;;4971163;28;20034;-77
2022/05/25 06:21:28;;;;;;;5.13;2.15;;;;;;;;;;4952971;29;20055;-77
2022/05/25 06:23:56;;;;;;;4.55;2.33;;;;;;;;;;4956761;28;20043;-77
2022/05/25 06:26:25;;;;;;;5.63;2.25;;;;;;;;;;4973114;28;20043;-76
2022/05/25 06:28:51;;;;;;;3.50;1.90;;;;;;;;;;4972315;28;20035;-77
2022/05/25 06:31:17;;;;;;;4.10;2.10;;;;;;;;;;4971085;28;20053;-77
2022/05/25 06:33:43;;;;;;;5.22;2.05;;;;;;;;;;4973723;28;20035;-77
2022/05/25 06:36:21;;;;;;;4.25;2.00;;;;;;;;;;4972071;28;20030;-77
2022/05/25 06:38:47;;;;;;;4.95;2.25;;;;;;;;;;4969196;28;20035;-77
2022/05/25 06:41:13;;;;;;;4.45;2.35;;;;;;;;;;4973158;28;20030;-77
2022/05/25 06:43:40;;;;;;;4.00;2.20;;;;;;;;;;4975221;28;20027;-77
2022/05/25 06:46:06;;;;;;;5.18;2.40;;;;;;;;;;4971612;28;20772;-77
2022/05/25 06:48:32;;;;;;;4.47;2.60;;;;;;;;;;4956152;28;20102;-76
2022/05/25 06:50:59;;;;;;;5.75;2.67;;;;;;;;;;4968359;28;20114;-77
2022/05/25 06:53:25;;;;;;;6.45;2.40;;;;;;;;;;4975317;28;20026;-76
2022/05/25 06:55:51;;;;;;;4.88;2.88;;;;;;;;;;4974534;28;20034;-76
2022/05/25 06:58:17;;;;;;;8.90;2.70;;;;;;;;;;4974723;28;20102;-76
2022/05/25 07:00:43;;;;;;;4.35;2.55;;;;;;;;;;4974309;28;20023;-76
2022/05/25 07:03:09;;;;;;;4.60;2.20;;;;;;;;;;4974560;28;20030;-76
2022/05/25 07:05:35;;;;;;;5.47;2.70;;;;;;;;;;4974323;28;20057;-77
2022/05/25 07:08:01;;;;;;;5.03;2.75;;;;;;;;;;4975245;28;20362;-76
2022/05/25 07:10:27;;;;;;;5.65;2.40;;;;;;;;;;4973310;28;20034;-76
2022/05/25 07:12:53;;;;;;;3.90;2.25;;;;;;;;;;4973489;28;20485;-77
2022/05/25 07:15:19;;;;;;;7.60;2.60;;;;;;;;;;4972800;28;20062;-77
2022/05/25 07:17:47;;;;;;;4.35;2.40;;;;;;;;;;4973905;28;20109;-76
2022/05/25 07:20:13;;;;;;;5.85;2.45;;;;;;;;;;4974173;28;20023;-76
2022/05/25 07:22:40;;;;;;;4.05;2.33;;;;;;;;;;4974543;28;20111;-76
2022/05/25 07:25:07;;;;;;;4.45;1.92;;;;;;;;;;4975414;28;20606;-76
2022/05/25 07:27:33;;;;;;;5.95;2.70;;;;;;;;;;4974369;28;20058;-76
2022/05/25 07:29:59;;;;;;;5.15;2.60;;;;;;;;;;4974218;28;20384;-77
2022/05/25 07:32:25;;;;;;;3.58;2.15;;;;;;;;;;4972248;28;20437;-76
2022/05/25 07:34:55;;;;;;;4.47;2.45;;;;;;;;;;4967260;28;20397;-77
2022/05/25 07:37:23;;;;;;;9.32;5.68;;;;;;;;;;4969648;28;20034;-76
2022/05/25 07:39:51;;;;;;;8.68;5.88;;;;;;;;;;4973973;28;20651;-76
2022/05/25 07:42:17;;;;;;;6.03;3.30;;;;;;;;;;4973156;28;20378;-76
2022/05/25 07:44:45;;;;;;;6.03;3.35;;;;;;;;;;4979191;28;20034;-77
2022/05/25 07:47:13;;;;;;;6.43;3.15;;;;;;;;;;4979863;28;20085;-76
2022/05/25 07:49:39;;;;;;;4.85;2.58;;;;;;;;;;4974774;28;20031;-76
2022/05/25 07:52:05;;;;;;;6.07;2.20;;;;;;;;;;4967904;28;20083;-76
2022/05/25 07:54:32;;;;;;;4.85;2.50;;;;;;;;;;4965074;28;20117;-76
2022/05/25 07:56:59;;;;;;;7.75;2.78;;;;;;;;;;4961290;28;20229;-76
2022/05/25 07:59:25;;;;;;;5.07;2.30;;;;;;;;;;4955000;28;20544;-76
2022/05/25 08:07:26;;;;;;;5.40;1.98;;;;;;;;;;4961777;28;20086;-75
2022/05/25 08:09:54;;;;;;;12.27;3.85;;;;;;;;;;4957232;28;20038;-76
2022/05/25 08:12:21;;;;;;;8.65;3.42;;;;;;;;;;4967412;28;20453;-76
2022/05/25 08:14:47;;;;;;;6.03;2.00;;;;;;;;;;4973297;28;20422;-76
2022/05/25 08:17:13;;;;;;;6.03;2.15;;;;;;;;;;4972429;28;20106;-76
2022/05/25 08:19:39;;;;;;;4.03;1.70;;;;;;;;;;4970918;28;20113;-76
2022/05/25 08:22:06;;;;;;;4.20;2.30;;;;;;;;;;4967052;28;20027;-77
2022/05/25 08:24:33;;;;;;;4.32;2.00;;;;;;;;;;4954329;28;20024;-76
2022/05/25 08:27:00;;;;;;;5.10;2.53;;;;;;;;;;4963693;28;20091;-76
2022/05/25 08:29:26;;;;;;;6.40;2.17;;;;;;;;;;4973338;28;20030;-76
2022/05/25 08:31:55;;;;;;;6.63;2.60;;;;;;;;;;4973255;28;20109;-77
2022/05/25 08:34:21;;;;;;;8.20;5.20;;;;;;;;;;4968691;28;20212;-76
2022/05/25 08:36:48;;;;;;;4.72;3.15;;;;;;;;;;4954028;28;20027;-76
2022/05/25 08:39:14;;;;;;;6.38;2.40;;;;;;;;;;4956106;28;20493;-77
2022/05/25 08:41:41;;;;;;;9.32;4.93;;;;;;;;;;4965774;28;20031;-77
2022/05/25 08:44:09;;;;;;;4.95;2.72;;;;;;;;;;4975501;28;20034;-77
2022/05/25 08:46:36;;;;;;;5.22;3.20;;;;;;;;;;4971254;28;20030;-76
2022/05/25 08:49:03;;;;;;;3.58;1.88;;;;;;;;;;4970940;28;20478;-77
2022/05/25 08:51:30;;;;;;;5.25;1.80;;;;;;;;;;4956316;28;20018;-76
2022/05/25 08:53:58;;;;;;;4.00;1.92;;;;;;;;;;4972340;28;20027;-76
2022/05/25 08:56:27;;;;;;;4.65;1.80;;;;;;;;;;4972489;28;20029;-76
2022/05/25 08:59:00;;;;;;;3.40;1.60;;;;;;;;;;4973729;28;20034;-77
2022/05/25 09:01:33;;;;;;;4.93;2.10;;;;;;;;;;4972553;28;20082;-77
2022/05/25 09:04:18;;;;;;;4.03;1.95;;;;;;;;;;4973624;28;20080;-78
2022/05/25 09:06:53;;;;;;;5.15;1.58;;;;;;;;;;4971899;28;20031;-77
2022/05/25 09:09:40;;;;;;;3.70;1.83;;;;;;;;;;4972247;28;20027;-77
2022/05/25 09:12:26;;;;;;;3.70;2.03;;;;;;;;;;4972063;28;20492;-77
2022/05/25 09:14:52;;;;;;;3.03;1.50;;;;;;;;;;4981163;28;20074;-78
2022/05/25 09:17:37;;;;;;;4.05;1.60;;;;;;;;;;4973418;28;20019;-77
2022/05/25 09:20:04;;;;;;;4.03;1.55;;;;;;;;;;4964523;28;20107;-78
2022/05/25 09:22:33;;;;;;;5.60;1.90;;;;;;;;;;4964841;28;20034;-78
2022/05/25 09:25:00;;;;;;;3.30;1.60;;;;;;;;;;4973018;28;20049;-78
2022/05/25 09:27:36;;;;;;;3.42;1.80;;;;;;;;;;4974092;28;20050;-76
2022/05/25 09:30:03;;;;;;;4.95;1.95;;;;;;;;;;4971314;28;20027;-75
2022/05/25 09:32:47;;;;;;;3.67;1.50;;;;;;;;;;4972590;28;20026;-76
2022/05/25 09:35:34;;;;;;;4.05;1.70;;;;;;;;;;4971967;28;20031;-78
2022/05/25 09:38:02;;;;;;;5.07;1.73;;;;;;;;;;4965305;28;20041;-78
2022/05/25 09:40:33;;;;;;;4.20;1.60;;;;;;;;;;4958324;28;20020;-76
2022/05/25 09:43:02;;;;;;;3.13;1.45;;;;;;;;;;4966405;28;20022;-78
2022/05/25 09:45:37;;;;;;;3.47;1.58;;;;;;;;;;4959904;28;20059;-78
2022/05/25 09:48:12;;;;;;;5.20;1.50;;;;;;;;;;4967363;28;20408;-77
2022/05/25 09:50:42;;;;;;;3.60;1.55;;;;;;;;;;4960074;28;20027;-77
2022/05/25 09:53:11;;;;;;;5.10;1.60;;;;;;;;;;4956586;28;20544;-78
2022/05/25 09:55:44;;;;;;;3.55;1.60;;;;;;;;;;4964917;28;20047;-77
2022/05/25 09:58:29;;;;;;;4.93;1.50;;;;;;;;;;4967087;28;20601;-78
2022/05/25 10:01:00;;;;;;;3.20;1.60;;;;;;;;;;4975125;28;20388;-76
2022/05/25 10:03:38;;;;;;;3.28;1.60;;;;;;;;;;4976091;28;20493;-75
2022/05/25 10:06:23;;;;;;;6.22;1.73;;;;;;;;;;4967186;28;20027;-75
2022/05/25 10:09:10;;;;;;;3.75;1.75;;;;;;;;;;4972397;28;20033;-76
2022/05/25 10:11:40;;;;;;;6.43;2.22;;;;;;;;;;4958609;28;20031;-76
2022/05/25 10:14:25;;;;;;;3.92;1.88;;;;;;;;;;4958385;28;20038;-76
2022/05/25 10:16:53;;;;;;;4.03;2.10;;;;;;;;;;4959105;28;20035;-78
2022/05/25 10:19:20;;;;;;;3.70;1.75;;;;;;;;;;4957442;28;20600;-77
2022/05/25 10:22:04;;;;;;;3.45;1.77;;;;;;;;;;4965912;28;20035;-78
2022/05/25 10:24:40;;;;;;;3.85;1.75;;;;;;;;;;4959559;28;20034;-76
2022/05/25 10:27:19;;;;;;;4.07;1.67;;;;;;;;;;4974060;28;20671;-76
2022/05/25 10:38:11;;;;;;;3.45;1.75;;;;;;;;;;4964238;28;20503;-76
2022/05/25 10:40:42;;;;;;;3.10;1.60;;;;;;;;;;4956157;28;20051;-76
2022/05/25 10:43:13;;;;;;;3.45;1.70;;;;;;;;;;4968609;28;20465;-77
2022/05/25 10:45:42;;;;;;;3.90;1.60;;;;;;;;;;4982998;28;20037;-78
2022/05/25 10:48:11;;;;;;;3.38;1.50;;;;;;;;;;4969228;28;20054;-78
2022/05/25 10:50:56;;;;;;;3.03;1.30;;;;;;;;;;4968313;28;20034;-76
2022/05/25 10:53:31;;;;;;;6.13;2.10;;;;;;;;;;4974783;28;20370;-79
2022/05/25 10:55:58;;;;;;;3.50;1.48;;;;;;;;;;4977525;28;20035;-76
2022/05/25 10:58:23;;;;;;;3.45;1.50;;;;;;;;;;4968017;28;20027;-76
2022/05/25 11:01:16;;;;;;;4.43;1.30;;;;;;;;;;4961397;28;20034;-78
2022/05/25 11:03:52;;;;;;;3.75;1.23;;;;;;;;;;4974110;28;20034;-76
2022/05/25 11:06:37;;;;;;;3.60;1.40;;;;;;;;;;4965291;28;20106;-76
2022/05/25 11:09:21;;;;;;;2.88;1.42;;;;;;;;;;4966742;28;20074;-77
2022/05/25 11:11:57;;;;;;;5.10;1.42;;;;;;;;;;4973256;28;20026;-77
2022/05/25 11:14:43;;;;;;;3.67;1.17;;;;;;;;;;4975135;28;20126;-76
2022/05/25 11:17:21;;;;;;;2.42;1.23;;;;;;;;;;4960360;28;20121;-78
2022/05/25 11:20:06;;;;;;;3.13;1.30;;;;;;;;;;4963210;28;20113;-76
2022/05/25 11:22:41;;;;;;;3.97;1.45;;;;;;;;;;4974249;28;20038;-77
2022/05/25 11:25:27;;;;;;;2.78;1.20;;;;;;;;;;4959059;28;20031;-78
2022/05/25 11:28:12;;;;;;;4.70;1.10;;;;;;;;;;4960136;28;20050;-76
2022/05/25 11:30:47;;;;;;;3.70;1.13;;;;;;;;;;4955350;28;20248;-76
2022/05/25 11:33:13;;;;;;;2.70;1.10;;;;;;;;;;4961166;28;20023;-77
2022/05/25 11:35:54;;;;;;;2.83;1.40;;;;;;;;;;4972988;28;20546;-77
2022/05/25 11:38:37;;;;;;;2.65;1.40;;;;;;;;;;4970731;28;20019;-78
2022/05/25 11:41:22;;;;;;;3.65;1.60;;;;;;;;;;4956831;28;20027;-78
2022/05/25 11:44:01;;;;;;;4.47;2.05;;;;;;;;;;4966611;28;20023;-77
2022/05/25 11:46:41;;;;;;;6.25;2.10;;;;;;;;;;4967397;28;20034;-77
2022/05/25 11:49:26;;;;;;;4.43;2.22;;;;;;;;;;4973784;28;20034;-77
2022/05/25 11:51:52;;;;;;;4.88;2.50;;;;;;;;;;4968935;28;20030;-77
2022/05/25 11:54:38;;;;;;;3.90;2.20;;;;;;;;;;4961200;28;20055;-78
2022/05/25 11:57:28;;;;;;;5.57;2.35;;;;;;;;;;4955762;28;20023;-78
2022/05/25 11:59:54;;;;;;;6.65;2.70;;;;;;;;;;4971086;28;20058;-77
2022/05/25 12:02:38;;;;;;;5.25;2.58;;;;;;;;;;4973863;28;20026;-77
2022/05/25 12:05:11;;;;;;;5.38;2.70;;;;;;;;;;4972406;28;20061;-77
2022/05/25 12:07:48;;;;;;;4.60;2.72;;;;;;;;;;4966920;28;20085;-77
2022/05/25 12:10:41;;;;;;;6.65;2.92;;;;;;;;;;4975567;28;20027;-78
2022/05/25 12:13:25;;;;;;;4.93;3.05;;;;;;;;;;4963739;28;20046;-78
2022/05/25 12:15:59;;;;;;;6.88;3.05;;;;;;;;;;4972792;28;20039;-77
2022/05/25 12:18:30;;;;;;;6.97;3.03;;;;;;;;;;4961487;28;20030;-77
2022/05/25 12:20:59;;;;;;;5.50;3.45;;;;;;;;;;4962288;28;20485;-77
2022/05/25 12:23:30;;;;;;;5.18;3.42;;;;;;;;;;4958350;28;20126;-77
2022/05/25 12:25:58;;;;;;;5.53;3.30;;;;;;;;;;4965740;28;20039;-78
2022/05/25 12:28:27;;;;;;;4.80;2.85;;;;;;;;;;4979820;28;20058;-78
2022/05/25 12:30:58;;;;;;;4.90;2.67;;;;;;;;;;4974709;28;20050;-78
2022/05/25 12:33:25;;;;;;;5.95;2.97;;;;;;;;;;4973376;28;20027;-78
2022/05/25 12:35:52;;;;;;;4.93;2.70;;;;;;;;;;4972271;28;20078;-79
2022/05/25 12:38:20;;;;;;;4.57;2.67;;;;;;;;;;4963866;28;20023;-78
2022/05/25 12:40:47;;;;;;;4.20;2.40;;;;;;;;;;4973705;28;20102;-78
2022/05/25 12:43:32;;;;;;;5.38;2.80;;;;;;;;;;4972056;28;20027;-77
2022/05/25 12:48:57;;;;;;;5.05;2.78;;;;;;;;;;4969813;28;20042;-79
2022/05/25 12:51:32;;;;;;;4.03;2.20;;;;;;;;;;4973342;28;20483;-77
2022/05/25 12:54:00;;;;;;;4.35;2.38;;;;;;;;;;4972882;28;20035;-78
2022/05/25 12:56:26;;;;;;;5.03;2.45;;;;;;;;;;4972738;28;20121;-78
2022/05/25 12:58:54;;;;;;;4.35;2.28;;;;;;;;;;4972859;28;20062;-78
2022/05/25 13:01:23;;;;;;;5.45;2.53;;;;;;;;;;4973228;28;20046;-78
2022/05/25 13:03:49;;;;;;;4.50;2.45;;;;;;;;;;4973155;28;20030;-77
2022/05/25 13:06:21;;;;;;;5.28;2.83;;;;;;;;;;4971395;28;20034;-77
2022/05/25 13:08:51;;;;;;;4.20;2.50;;;;;;;;;;4973091;28;20492;-78
2022/05/25 13:11:34;;;;;;;5.88;2.83;;;;;;;;;;4972970;28;20079;-78
2022/05/25 13:14:08;;;;;;;4.82;2.95;;;;;;;;;;4964822;28;20030;-78
2022/05/25 13:16:47;;;;;;;6.28;3.50;;;;;;;;;;4973166;28;20077;-78
2022/05/25 13:19:16;;;;;;;6.25;3.30;;;;;;;;;;4972864;28;20026;-77
2022/05/25 13:21:44;;;;;;;5.97;3.15;;;;;;;;;;4972927;28;20027;-78
2022/05/25 13:24:20;;;;;;;6.95;3.72;;;;;;;;;;4966993;28;20020;-77
2022/05/25 13:27:06;;;;;;;5.10;3.50;;;;;;;;;;4957184;28;20049;-78
2022/05/25 13:29:49;;;;;;;4.97;3.17;;;;;;;;;;4972440;28;20428;-77
2022/05/25 13:32:35;;;;;;;7.53;3.83;;;;;;;;;;4972911;28;20026;-78
2022/05/25 13:35:21;;;;;;;5.88;3.92;;;;;;;;;;4971226;28;20129;-78
2022/05/25 13:38:07;;;;;;;5.38;3.60;;;;;;;;;;4972483;28;20034;-78
2022/05/25 13:40:39;;;;;;;7.95;4.30;;;;;;;;;;4972137;28;20405;-78
2022/05/25 13:43:07;;;;;;;5.88;4.53;;;;;;;;;;4971732;28;20031;-77
2022/05/25 13:45:39;;;;;;;6.43;4.53;;;;;;;;;;4972029;28;20077;-78
2022/05/25 13:48:10;;;;;;;5.95;4.22;;;;;;;;;;4972510;28;20062;-77
2022/05/25 13:50:39;;;;;;;6.97;4.70;;;;;;;;;;4971989;28;20097;-78
2022/05/25 13:53:10;;;;;;;6.20;4.80;;;;;;;;;;4972467;28;20039;-78
2022/05/25 13:55:37;;;;;;;5.55;4.13;;;;;;;;;;4966210;28;20028;-78
2022/05/25 13:58:09;;;;;;;6.38;4.40;;;;;;;;;;4972146;28;20031;-78
2022/05/25 14:00:38;;;;;;;6.93;4.97;;;;;;;;;;4972568;28;20492;-78
2022/05/25 14:03:16;;;;;;;6.38;4.40;;;;;;;;;;4971646;28;20109;-78
2022/05/25 14:05:46;;;;;;;6.25;4.57;;;;;;;;;;4971291;28;20493;-78
2022/05/25 14:08:12;;;;;;;6.10;4.80;;;;;;;;;;4968396;28;20080;-78
2022/05/25 14:11:12;;;;;;;6.07;4.50;;;;;;;;;;4961181;28;20035;-78
2022/05/25 14:13:33;;;;;;;5.95;4.45;;;;;;;;;;4971720;28;20031;-78
2022/05/25 14:16:02;;;;;;;5.95;4.60;;;;;;;;;;4970590;28;20512;-79
2022/05/25 14:18:29;;;;;;;6.55;4.57;;;;;;;;;;4967907;28;20030;-78
2022/05/25 14:20:56;;;;;;;6.55;4.40;;;;;;;;;;4972203;28;20023;-78
2022/05/25 14:23:26;;;;;;;6.35;4.43;;;;;;;;;;4971577;28;20027;-78
2022/05/25 14:26:02;;;;;;;6.13;4.07;;;;;;;;;;4971196;28;20034;-79
2022/05/25 14:28:33;;;;;;;6.95;4.47;;;;;;;;;;4969388;28;20484;-78
2022/05/25 14:30:59;;;;;;;6.25;4.05;;;;;;;;;;4971983;28;20392;-78
2022/05/25 14:33:26;;;;;;;6.15;4.65;;;;;;;;;;4972497;28;20053;-78
2022/05/25 14:35:55;;;;;;;6.10;4.00;;;;;;;;;;4954473;28;20042;-78
2022/05/25 14:38:22;;;;;;;6.40;4.65;;;;;;;;;;4961729;28;20033;-78
2022/05/25 14:40:52;;;;;;;6.72;4.72;;;;;;;;;;4969387;28;20019;-79
2022/05/25 14:43:38;;;;;;;7.07;4.90;;;;;;;;;;4968969;28;20473;-79
2022/05/25 14:46:07;;;;;;;6.80;4.40;;;;;;;;;;4959017;28;20019;-79
2022/05/25 14:48:33;;;;;;;7.75;4.50;;;;;;;;;;4976202;28;20126;-78
2022/05/25 14:51:01;;;;;;;7.65;5.03;;;;;;;;;;4975655;28;20499;-79
2022/05/25 14:53:35;;;;;;;7.32;5.38;;;;;;;;;;4963344;28;20051;-79
2022/05/25 14:56:02;;;;;;;7.80;5.03;;;;;;;;;;4964182;28;20171;-78
2022/05/25 14:58:38;;;;;;;7.53;5.60;;;;;;;;;;4973931;28;20053;-78
2022/05/25 15:01:07;;;;;;;7.57;5.78;;;;;;;;;;4967925;28;20050;-79
2022/05/25 15:03:38;;;;;;;8.05;6.32;;;;;;;;;;4958712;28;20019;-79
2022/05/25 15:06:06;;;;;;;8.13;6.03;;;;;;;;;;4956120;28;20066;-78
2022/05/25 15:08:33;;;;;;;8.00;6.43;;;;;;;;;;4963972;28;20038;-79
2022/05/25 15:11:18;;;;;;;7.70;6.20;;;;;;;;;;4974521;28;20392;-80
2022/05/25 15:19:24;;;;;;;8.50;6.93;;;;;;;;;;4963372;28;20110;-78
2022/05/25 15:21:50;;;;;;;10.00;7.30;;;;;;;;;;4964019;28;20027;-78
2022/05/25 15:24:17;;;;;;;10.45;7.55;;;;;;;;;;4966457;28;20045;-78
2022/05/25 15:26:52;;;;;;;8.10;6.88;;;;;;;;;;4971696;28;20070;-78
2022/05/25 15:29:39;;;;;;;8.18;6.30;;;;;;;;;;4966321;28;20119;-79
2022/05/25 15:32:05;;;;;;;9.82;6.53;;;;;;;;;;4977794;28;20026;-79
2022/05/25 15:34:31;;;;;;;8.90;6.57;;;;;;;;;;4980165;28;20030;-78
2022/05/25 15:36:57;;;;;;;9.93;7.15;;;;;;;;;;4969933;28;20118;-78
2022/05/25 15:39:24;;;;;;;6.53;4.45;;;;;;;;;;4963632;28;20473;-79
2022/05/25 15:41:50;;;;;;;5.20;3.55;;;;;;;;;;4967836;28;20022;-79